createdAt,value
2019-04-28T00:02:22.453Z,99.90
2019-04-28T00:04:54.472Z,99.90
2019-04-28T00:07:27.045Z,99.90
2019-04-28T00:10:00.985Z,99.90
2019-04-28T00:12:33.387Z,99.90
2019-04-28T00:15:05.782Z,99.90
2019-04-28T00:17:37.735Z,99.90
2019-04-28T00:20:13.534Z,99.90
2019-04-28T00:22:53.825Z,99.90
2019-04-28T00:25:29.009Z,99.90
2019-04-28T00:28:01.732Z,99.90
2019-04-28T00:30:33.666Z,99.90
2019-04-28T00:33:05.718Z,99.90
2019-04-28T00:35:37.996Z,99.90
2019-04-28T00:38:11.313Z,99.90
2019-04-28T00:40:43.607Z,99.90
2019-04-28T00:43:15.881Z,99.90
2019-04-28T00:45:47.830Z,99.90
2019-04-28T00:48:20.948Z,99.90
2019-04-28T00:50:53.688Z,99.90
2019-04-28T00:53:25.833Z,99.90
2019-04-28T00:55:57.832Z,99.90
2019-04-28T00:58:31.836Z,99.90
2019-04-28T01:01:08.851Z,99.90
2019-04-28T01:03:42.090Z,99.90
2019-04-28T01:06:14.194Z,99.90
2019-04-28T01:08:46.378Z,99.90
2019-04-28T01:11:18.346Z,99.90
2019-04-28T01:13:51.784Z,99.90
2019-04-28T01:16:40.046Z,99.90
2019-04-28T01:19:20.092Z,99.90
2019-04-28T01:22:22.828Z,99.90
2019-04-28T01:24:55.168Z,99.90
2019-04-28T01:27:50.567Z,99.90
2019-04-28T01:30:41.175Z,99.90
2019-04-28T01:33:35.110Z,99.90
2019-04-28T01:36:07.201Z,99.90
2019-04-28T01:38:40.171Z,99.90
2019-04-28T01:41:14.791Z,99.90
2019-04-28T01:43:46.747Z,99.90
2019-04-28T01:46:19.890Z,99.90
2019-04-28T01:48:51.872Z,99.90
2019-04-28T01:51:23.791Z,99.90
2019-04-28T01:53:56.123Z,99.90
2019-04-28T01:56:30.413Z,99.90
2019-04-28T01:59:02.392Z,99.90
2019-04-28T02:01:34.727Z,99.90
2019-04-28T02:04:07.106Z,99.90
2019-04-28T02:06:41.373Z,99.90
2019-04-28T02:09:13.747Z,99.90
2019-04-28T02:11:45.658Z,99.90
2019-04-28T02:14:19.563Z,99.90
2019-04-28T02:16:51.575Z,99.90
2019-04-28T02:19:24.328Z,99.90
2019-04-28T02:22:20.184Z,99.90
2019-04-28T02:24:53.262Z,99.90
2019-04-28T02:27:25.666Z,99.90
2019-04-28T02:30:00.069Z,99.90
2019-04-28T02:32:32.589Z,99.90
2019-04-28T02:35:04.781Z,99.90
2019-04-28T02:37:36.730Z,99.90
2019-04-28T02:40:10.566Z,99.90
2019-04-28T02:42:42.978Z,99.90
2019-04-28T02:45:21.929Z,99.90
2019-04-28T02:47:56.953Z,99.90
2019-04-28T02:50:35.171Z,99.90
2019-04-28T02:53:24.685Z,99.90
2019-04-28T02:55:57.404Z,99.90
2019-04-28T02:58:31.248Z,99.90
2019-04-28T03:01:12.818Z,99.90
2019-04-28T03:03:37.755Z,99.90
2019-04-28T03:06:10.814Z,99.90
2019-04-28T03:08:42.920Z,99.90
2019-04-28T03:11:14.967Z,99.90
2019-04-28T03:13:46.976Z,99.90
2019-04-28T03:16:20.863Z,99.90
2019-04-28T03:18:53.233Z,99.90
2019-04-28T03:21:25.684Z,99.90
2019-04-28T03:23:57.590Z,99.90
2019-04-28T03:26:37.148Z,99.90
2019-04-28T03:29:30.901Z,99.90
2019-04-28T03:32:28.835Z,99.90
2019-04-28T03:34:43.871Z,99.90
2019-04-28T03:37:16.293Z,99.90
2019-04-28T03:39:50.455Z,99.90
2019-04-28T03:42:23.020Z,99.90
2019-04-28T03:44:57.044Z,99.90
2019-04-28T03:47:31.120Z,99.90
2019-04-28T03:50:03.450Z,99.90
2019-04-28T03:52:35.720Z,99.90
2019-04-28T03:55:07.881Z,99.90
2019-04-28T03:57:41.266Z,99.90
2019-04-28T04:00:13.979Z,99.90
2019-04-28T04:02:45.922Z,99.90
2019-04-28T04:05:20.623Z,99.90
2019-04-28T04:07:52.163Z,99.90
2019-04-28T04:11:00.244Z,99.90
2019-04-28T04:13:43.678Z,99.90
2019-04-28T04:16:25.456Z,99.90
2019-04-28T04:19:00.757Z,99.90
2019-04-28T04:21:32.403Z,99.90
2019-04-28T04:24:04.602Z,99.90
2019-04-28T04:26:36.509Z,99.90
2019-04-28T04:29:10.166Z,99.90
2019-04-28T04:31:42.895Z,99.90
2019-04-28T04:34:15.169Z,99.90
2019-04-28T04:36:47.117Z,99.90
2019-04-28T04:39:20.658Z,99.90
2019-04-28T04:41:52.741Z,99.90
2019-04-28T04:44:24.689Z,99.90
2019-04-28T04:46:57.378Z,99.90
2019-04-28T04:49:31.605Z,99.90
2019-04-28T04:52:03.011Z,99.90
2019-04-28T04:54:36.843Z,99.90
2019-04-28T04:57:11.117Z,99.90
2019-04-28T04:59:43.116Z,99.90
2019-04-28T05:02:44.841Z,99.90
2019-04-28T05:05:32.719Z,99.90
2019-04-28T05:08:06.509Z,99.90
2019-04-28T05:10:40.381Z,99.90
2019-04-28T05:13:12.367Z,99.90
2019-04-28T05:15:44.736Z,99.90
2019-04-28T05:18:17.065Z,99.90
2019-04-28T05:20:50.476Z,99.90
2019-04-28T05:23:31.539Z,99.90
2019-04-28T05:26:08.036Z,99.90
2019-04-28T05:28:43.907Z,99.90
2019-04-28T05:31:13.573Z,99.90
2019-04-28T05:33:44.690Z,99.90
2019-04-28T05:36:16.717Z,99.90
2019-04-28T05:38:49.621Z,99.90
2019-04-28T05:41:21.686Z,99.90
2019-04-28T05:43:53.909Z,99.90
2019-04-28T05:46:25.862Z,99.90
2019-04-28T05:49:07.394Z,99.90
2019-04-28T05:51:41.397Z,99.90
2019-04-28T05:54:33.812Z,99.90
2019-04-28T05:57:23.268Z,99.90
2019-04-28T06:00:14.316Z,99.90
2019-04-28T06:02:56.475Z,99.90
2019-04-28T06:05:22.534Z,99.90
2019-04-28T06:08:20.227Z,99.90
2019-04-28T06:10:52.449Z,99.90
2019-04-28T06:13:24.414Z,99.90
2019-04-28T06:15:56.634Z,99.90
2019-04-28T06:18:28.581Z,99.90
2019-04-28T06:21:01.353Z,99.90
2019-04-28T06:23:33.722Z,99.90
2019-04-28T06:26:06.384Z,99.90
2019-04-28T06:28:38.344Z,99.90
2019-04-28T06:31:10.670Z,99.90
2019-04-28T06:33:44.605Z,99.90
2019-04-28T06:36:16.609Z,99.90
2019-04-28T06:38:48.988Z,99.90
2019-04-28T06:41:21.321Z,99.90
2019-04-28T06:43:53.598Z,99.90
2019-04-28T06:46:25.518Z,99.90
2019-04-28T06:48:57.445Z,99.90
2019-04-28T06:51:29.819Z,99.90
2019-04-28T06:54:02.194Z,99.90
2019-04-28T06:56:35.210Z,99.90
2019-04-28T06:59:07.724Z,99.90
2019-04-28T07:01:39.634Z,99.90
2019-04-28T07:04:11.894Z,99.90
2019-04-28T07:06:44.568Z,99.90
2019-04-28T07:09:17.059Z,99.90
2019-04-28T07:11:49.543Z,99.90
2019-04-28T07:14:21.925Z,99.90
2019-04-28T07:16:53.839Z,99.90
2019-04-28T07:19:25.798Z,99.90
2019-04-28T07:22:23.159Z,99.90
2019-04-28T07:24:56.027Z,99.90
2019-04-28T07:27:27.943Z,99.90
2019-04-28T07:30:00.629Z,99.90
2019-04-28T07:32:32.618Z,99.90
2019-04-28T07:35:05.218Z,99.90
2019-04-28T07:37:37.556Z,99.90
2019-04-28T07:40:09.623Z,99.90
2019-04-28T07:42:41.534Z,99.90
2019-04-28T07:45:14.027Z,99.90
2019-04-28T07:47:46.446Z,99.90
2019-04-28T07:50:18.617Z,99.90
2019-04-28T07:52:55.479Z,99.90
2019-04-28T07:55:28.186Z,99.90
2019-04-28T07:58:00.411Z,99.90
2019-04-28T08:00:32.737Z,99.90
2019-04-28T08:03:04.663Z,99.90
2019-04-28T08:05:36.931Z,99.90
2019-04-28T08:08:09.589Z,99.90
2019-04-28T08:10:41.523Z,99.90
2019-04-28T08:13:15.885Z,99.90
2019-04-28T08:15:47.507Z,99.90
2019-04-28T08:18:20.382Z,99.90
2019-04-28T08:20:52.343Z,99.90
2019-04-28T08:23:24.247Z,99.90
2019-04-28T08:25:56.287Z,99.90
2019-04-28T08:28:28.192Z,99.90
2019-04-28T08:31:00.139Z,99.90
2019-04-28T08:33:38.142Z,99.90
2019-04-28T08:36:10.104Z,99.90
2019-04-28T08:38:42.946Z,99.90
2019-04-28T08:41:14.898Z,99.90
2019-04-28T08:43:47.358Z,99.90
2019-04-28T08:46:20.230Z,99.90
2019-04-28T08:48:52.587Z,99.90
2019-04-28T08:51:24.969Z,99.90
2019-04-28T08:53:56.925Z,99.40
2019-04-28T08:56:29.318Z,99.10
2019-04-28T08:59:01.400Z,99.70
2019-04-28T09:01:33.936Z,99.70
2019-04-28T09:04:15.110Z,99.20
2019-04-28T09:06:48.366Z,99.00
2019-04-28T09:09:22.074Z,99.70
2019-04-28T09:11:56.709Z,99.80
2019-04-28T09:14:31.684Z,99.80
2019-04-28T09:17:03.808Z,99.50
2019-04-28T09:19:36.734Z,99.30
2019-04-28T09:22:09.342Z,99.60
2019-04-28T09:24:41.724Z,98.60
2019-04-28T09:27:15.245Z,99.00
2019-04-28T09:29:47.697Z,98.80
2019-04-28T09:32:20.860Z,98.20
2019-04-28T09:34:53.364Z,97.00
2019-04-28T09:37:26.562Z,97.00
2019-04-28T09:40:08.753Z,96.80
2019-04-28T09:43:19.717Z,96.90
2019-04-28T09:45:54.822Z,96.70
2019-04-28T09:48:27.668Z,97.00
2019-04-28T09:51:00.187Z,95.90
2019-04-28T09:53:32.687Z,96.10
2019-04-28T09:56:05.107Z,94.30
2019-04-28T09:58:38.604Z,94.00
2019-04-28T10:01:11.003Z,94.70
2019-04-28T10:03:43.176Z,95.20
2019-04-28T10:06:15.428Z,94.90
2019-04-28T10:08:47.509Z,92.90
2019-04-28T10:11:30.008Z,92.30
2019-04-28T10:13:57.062Z,91.50
2019-04-28T10:16:29.611Z,92.20
2019-04-28T10:19:02.573Z,92.40
2019-04-28T10:21:37.018Z,91.60
2019-04-28T10:24:10.276Z,92.00
2019-04-28T10:26:42.780Z,90.30
2019-04-28T10:29:15.246Z,90.70
2019-04-28T10:31:48.156Z,90.00
2019-04-28T10:34:20.618Z,88.20
2019-04-28T10:36:53.009Z,90.60
2019-04-28T10:39:37.179Z,91.30
2019-04-28T10:42:09.785Z,91.40
2019-04-28T10:44:46.146Z,92.10
2019-04-28T10:47:19.547Z,93.30
2019-04-28T10:49:52.093Z,94.00
2019-04-28T10:52:24.912Z,93.80
2019-04-28T10:54:57.848Z,94.20
2019-04-28T10:57:30.415Z,94.60
2019-04-28T11:00:03.612Z,95.90
2019-04-28T11:02:37.156Z,95.60
2019-04-28T11:05:17.547Z,95.10
2019-04-28T11:07:52.521Z,94.40
2019-04-28T11:10:26.045Z,94.40
2019-04-28T11:12:58.514Z,95.00
2019-04-28T11:15:36.047Z,95.40
2019-04-28T11:18:10.208Z,95.30
2019-04-28T11:20:42.319Z,95.00
2019-04-28T11:23:14.815Z,94.20
2019-04-28T11:25:47.250Z,93.60
2019-04-28T11:28:21.948Z,93.80
2019-04-28T11:30:57.375Z,93.90
2019-04-28T11:33:55.063Z,93.40
2019-04-28T11:36:28.060Z,93.30
2019-04-28T11:39:00.773Z,92.60
2019-04-28T11:41:33.211Z,93.10
2019-04-28T11:44:06.228Z,92.40
2019-04-28T11:46:38.343Z,93.00
2019-04-28T11:49:10.481Z,92.80
2019-04-28T11:51:42.969Z,92.70
2019-04-28T11:54:15.168Z,92.60
2019-04-28T11:56:48.033Z,92.20
2019-04-28T11:59:21.010Z,91.70
2019-04-28T12:01:53.647Z,90.50
2019-04-28T12:04:26.102Z,89.80
2019-04-28T12:06:58.539Z,89.10
2019-04-28T12:09:49.919Z,89.40
2019-04-28T12:12:32.040Z,88.90
2019-04-28T12:15:21.320Z,87.00
2019-04-28T12:18:20.532Z,87.40
2019-04-28T12:20:53.047Z,88.00
2019-04-28T12:23:25.165Z,88.60
2019-04-28T12:25:59.327Z,89.70
2019-04-28T12:28:31.752Z,89.40
2019-04-28T12:31:04.151Z,87.70
2019-04-28T12:33:37.199Z,88.80
2019-04-28T12:36:12.274Z,84.80
2019-04-28T12:38:45.065Z,85.60
2019-04-28T12:41:17.644Z,87.50
2019-04-28T12:43:49.763Z,83.60
2019-04-28T12:46:21.834Z,81.60
2019-04-28T12:48:56.735Z,82.30
2019-04-28T12:51:28.814Z,83.00
2019-04-28T12:54:04.418Z,83.60
2019-04-28T12:56:37.388Z,84.30
2019-04-28T12:59:17.775Z,85.10
2019-04-28T13:02:08.710Z,82.30
2019-04-28T13:04:44.957Z,82.60
2019-04-28T13:07:17.032Z,80.90
2019-04-28T13:09:49.152Z,81.00
2019-04-28T13:12:21.218Z,81.40
2019-04-28T13:14:53.636Z,80.10
2019-04-28T13:17:26.139Z,78.10
2019-04-28T13:19:58.250Z,74.40
2019-04-28T13:22:31.282Z,75.70
2019-04-28T13:25:03.643Z,67.70
2019-04-28T13:27:36.459Z,63.00
2019-04-28T13:30:10.123Z,64.60
2019-04-28T13:32:42.617Z,60.10
2019-04-28T13:35:15.044Z,63.60
2019-04-28T13:37:47.195Z,64.40
2019-04-28T13:40:25.485Z,58.30
2019-04-28T13:42:57.556Z,59.60
2019-04-28T13:45:30.411Z,55.70
2019-04-28T13:48:04.231Z,55.10
2019-04-28T13:50:42.817Z,53.10
2019-04-28T13:53:16.058Z,52.30
2019-04-28T13:56:01.696Z,59.20
2019-04-28T13:58:37.555Z,54.50
2019-04-28T14:01:22.963Z,67.70
2019-04-28T14:04:07.356Z,76.70
2019-04-28T14:06:42.813Z,71.30
2019-04-28T14:09:17.014Z,76.20
2019-04-28T14:11:49.389Z,76.90
2019-04-28T14:14:21.553Z,68.00
2019-04-28T14:16:53.764Z,73.30
2019-04-28T14:19:25.859Z,74.20
2019-04-28T14:21:57.883Z,74.70
2019-04-28T14:24:30.419Z,74.60
2019-04-28T14:27:02.488Z,74.40
2019-04-28T14:29:34.548Z,75.20
2019-04-28T14:32:07.129Z,74.70
2019-04-28T14:34:40.243Z,75.90
2019-04-28T14:37:15.105Z,75.10
2019-04-28T14:39:47.143Z,78.20
2019-04-28T14:42:19.949Z,78.10
2019-04-28T14:44:53.144Z,75.60
2019-04-28T14:47:25.223Z,73.20
2019-04-28T14:49:57.362Z,72.90
2019-04-28T14:52:29.426Z,73.60
2019-04-28T14:55:02.354Z,74.00
2019-04-28T14:57:35.879Z,75.30
2019-04-28T15:00:13.444Z,75.10
2019-04-28T15:02:59.276Z,77.90
2019-04-28T15:05:50.217Z,78.00
2019-04-28T15:08:30.532Z,78.40
2019-04-28T15:11:24.349Z,78.50
2019-04-28T15:13:56.487Z,78.70
2019-04-28T15:16:36.058Z,73.70
2019-04-28T15:19:08.776Z,73.00
2019-04-28T15:21:41.748Z,75.50
2019-04-28T15:24:13.823Z,76.40
2019-04-28T15:26:46.251Z,74.10
2019-04-28T15:29:24.058Z,74.00
2019-04-28T15:32:14.074Z,74.70
2019-04-28T15:34:54.112Z,74.00
2019-04-28T15:37:38.533Z,74.40
2019-04-28T15:40:13.328Z,73.60
2019-04-28T15:42:45.411Z,72.90
2019-04-28T15:45:18.037Z,71.10
2019-04-28T15:47:50.523Z,72.90
2019-04-28T15:50:25.245Z,76.80
2019-04-28T15:52:58.036Z,74.90
2019-04-28T15:55:46.201Z,75.30
2019-04-28T15:58:32.072Z,76.10
2019-04-28T16:01:05.475Z,79.60
2019-04-28T16:03:38.539Z,79.70
2019-04-28T16:06:11.459Z,80.60
2019-04-28T16:08:43.684Z,81.60
2019-04-28T16:11:16.820Z,82.20
2019-04-28T16:13:50.500Z,82.80
2019-04-28T16:16:24.837Z,84.30
2019-04-28T16:18:57.364Z,84.90
2019-04-28T16:21:30.166Z,85.60
2019-04-28T16:24:02.284Z,86.30
2019-04-28T16:26:34.357Z,87.50
2019-04-28T16:29:07.401Z,86.50
2019-04-28T16:31:39.863Z,86.30
2019-04-28T16:34:12.829Z,86.50
2019-04-28T16:36:44.908Z,86.80
2019-04-28T16:39:17.036Z,87.20
2019-04-28T16:42:03.905Z,88.40
2019-04-28T16:44:42.505Z,88.90
2019-04-28T16:47:15.337Z,88.20
2019-04-28T16:49:48.619Z,87.50
2019-04-28T16:52:20.793Z,88.20
2019-04-28T16:55:12.821Z,88.60
2019-04-28T16:58:10.644Z,90.10
2019-04-28T17:01:08.353Z,90.60
2019-04-28T17:03:40.469Z,90.40
2019-04-28T17:06:12.877Z,91.20
2019-04-28T17:08:45.444Z,90.80
2019-04-28T17:11:18.520Z,90.90
2019-04-28T17:13:50.896Z,90.50
2019-04-28T17:16:24.443Z,91.00
2019-04-28T17:18:56.934Z,90.90
2019-04-28T17:21:29.796Z,90.80
2019-04-28T17:24:02.293Z,90.90
2019-04-28T17:26:34.406Z,90.90
2019-04-28T17:29:07.115Z,91.30
2019-04-28T17:31:39.655Z,91.10
2019-04-28T17:34:12.042Z,90.80
2019-04-28T17:36:44.592Z,90.70
2019-04-28T17:39:21.346Z,91.40
2019-04-28T17:41:53.901Z,91.50
2019-04-28T17:44:26.734Z,91.40
2019-04-28T17:46:59.889Z,91.20
2019-04-28T17:49:37.277Z,91.40
2019-04-28T17:52:11.059Z,91.70
2019-04-28T17:54:43.808Z,92.00
2019-04-28T17:57:15.935Z,92.10
2019-04-28T17:59:50.034Z,92.20
2019-04-28T18:02:44.313Z,92.10
2019-04-28T18:05:28.930Z,92.30
2019-04-28T18:08:04.349Z,92.70
2019-04-28T18:10:37.591Z,92.90
2019-04-28T18:13:10.097Z,93.20
2019-04-28T18:16:01.855Z,93.50
2019-04-28T18:18:43.231Z,93.90
2019-04-28T18:21:15.765Z,94.50
2019-04-28T18:23:47.816Z,94.90
2019-04-28T18:26:20.304Z,95.30
2019-04-28T18:28:52.737Z,96.10
2019-04-28T18:31:52.544Z,96.50
2019-04-28T18:34:35.346Z,96.90
2019-04-28T18:37:29.072Z,97.10
2019-04-28T18:40:07.751Z,97.30
2019-04-28T18:42:58.500Z,97.60
2019-04-28T18:45:30.888Z,97.90
2019-04-28T18:48:03.664Z,98.10
2019-04-28T18:50:35.615Z,98.20
2019-04-28T18:53:07.636Z,98.30
2019-04-28T18:55:39.957Z,98.40
2019-04-28T18:58:11.871Z,98.60
2019-04-28T19:00:49.014Z,98.80
2019-04-28T19:03:21.684Z,98.90
2019-04-28T19:05:54.223Z,98.80
2019-04-28T19:08:49.036Z,99.30
2019-04-28T19:11:39.845Z,99.40
2019-04-28T19:14:18.361Z,99.60
2019-04-28T19:17:09.163Z,99.10
2019-04-28T19:19:41.585Z,99.10
2019-04-28T19:22:13.850Z,99.10
2019-04-28T19:24:46.186Z,98.90
2019-04-28T19:27:18.141Z,98.90
2019-04-28T19:29:50.382Z,99.10
2019-04-28T19:32:22.651Z,98.90
2019-04-28T19:34:55.417Z,99.00
2019-04-28T19:37:27.793Z,99.10
2019-04-28T19:40:00.458Z,99.00
2019-04-28T19:42:33.154Z,99.00
2019-04-28T19:45:07.232Z,99.10
2019-04-28T19:47:39.926Z,99.20
2019-04-28T19:50:12.463Z,99.40
2019-04-28T19:52:44.819Z,99.50
2019-04-28T19:55:27.318Z,99.40
2019-04-28T19:58:20.855Z,99.40
2019-04-28T20:00:56.663Z,99.40
2019-04-28T20:03:28.434Z,99.60
2019-04-28T20:06:00.744Z,99.60
2019-04-28T20:08:33.609Z,99.50
2019-04-28T20:11:05.950Z,99.40
2019-04-28T20:13:38.224Z,99.60
2019-04-28T20:16:10.166Z,99.60
2019-04-28T20:18:44.075Z,99.70
2019-04-28T20:21:16.096Z,99.90
2019-04-28T20:23:48.038Z,99.90
2019-04-28T20:26:20.281Z,99.90
2019-04-28T20:28:52.753Z,99.90
2019-04-28T20:31:25.313Z,99.90
2019-04-28T20:33:57.594Z,99.90
2019-04-28T20:36:48.769Z,99.90
2019-04-28T20:39:28.362Z,99.90
2019-04-28T20:42:18.011Z,99.90
2019-04-28T20:44:51.039Z,99.90
2019-04-28T20:47:23.813Z,99.90
2019-04-28T20:49:56.172Z,99.90
2019-04-28T20:52:28.822Z,99.90
2019-04-28T20:55:01.864Z,99.90
2019-04-28T20:57:34.242Z,99.90
2019-04-28T21:00:07.123Z,99.90
2019-04-28T21:02:39.826Z,99.90
2019-04-28T21:05:12.733Z,99.90
2019-04-28T21:07:45.127Z,99.90
2019-04-28T21:10:17.181Z,99.90
2019-04-28T21:12:49.123Z,99.90
2019-04-28T21:15:21.506Z,99.90
2019-04-28T21:17:53.887Z,99.90
2019-04-28T21:20:25.857Z,99.90
2019-04-28T21:22:57.802Z,99.90
2019-04-28T21:25:29.766Z,99.90
2019-04-28T21:28:01.717Z,99.90
2019-04-28T21:30:34.119Z,99.90
2019-04-28T21:33:06.916Z,99.90
2019-04-28T21:35:38.873Z,99.90
2019-04-28T21:38:11.569Z,99.90
2019-04-28T21:40:44.779Z,99.90
2019-04-28T21:43:34.696Z,99.90
2019-04-28T21:46:28.857Z,99.90
2019-04-28T21:49:03.478Z,99.90
2019-04-28T21:51:35.854Z,99.90
2019-04-28T21:54:08.441Z,99.90
2019-04-28T21:56:40.386Z,99.90
2019-04-28T21:59:13.037Z,99.90
2019-04-28T22:01:45.610Z,99.90
2019-04-28T22:04:17.527Z,99.90
2019-04-28T22:06:49.570Z,99.90
2019-04-28T22:09:21.481Z,99.90
2019-04-28T22:11:54.161Z,99.90
2019-04-28T22:14:26.082Z,99.90
2019-04-28T22:16:58.463Z,99.90
2019-04-28T22:19:31.361Z,99.90
2019-04-28T22:22:03.339Z,99.90
2019-04-28T22:24:46.967Z,99.90
2019-04-28T22:27:27.543Z,99.90
2019-04-28T22:29:59.462Z,99.90
2019-04-28T22:32:31.728Z,99.90
2019-04-28T22:35:04.650Z,99.90
2019-04-28T22:37:36.616Z,99.90
2019-04-28T22:40:09.373Z,99.90
2019-04-28T22:42:41.316Z,99.90
2019-04-28T22:45:14.317Z,99.90
2019-04-28T22:47:46.357Z,99.90
2019-04-28T22:50:52.610Z,99.90
2019-04-28T22:53:30.951Z,99.90
2019-04-28T22:56:10.818Z,99.90
2019-04-28T22:58:56.794Z,99.90
2019-04-28T23:01:35.790Z,99.90
2019-04-28T23:04:27.787Z,99.90
2019-04-28T23:07:00.245Z,99.90
2019-04-28T23:09:32.721Z,99.90
2019-04-28T23:12:05.158Z,99.90
2019-04-28T23:14:38.306Z,99.90
2019-04-28T23:17:12.682Z,99.90
2019-04-28T23:19:45.070Z,99.90
2019-04-28T23:22:46.203Z,99.90
2019-04-28T23:25:09.686Z,99.90
2019-04-28T23:27:42.039Z,99.90
2019-04-28T23:30:33.786Z,99.90
2019-04-28T23:33:07.093Z,99.90
2019-04-28T23:35:39.329Z,99.90
2019-04-28T23:38:11.893Z,99.90
2019-04-28T23:41:02.464Z,99.90
2019-04-28T23:43:34.419Z,99.90
2019-04-28T23:46:06.680Z,99.90
2019-04-28T23:48:38.917Z,99.90
2019-04-28T23:51:18.788Z,99.90
2019-04-28T23:53:59.517Z,99.90
2019-04-28T23:56:31.463Z,99.90
2019-04-28T23:59:04.334Z,99.90
